sensor_id;sensor_type;location;lat;lon;timestamp;temperature;humidity
12335;DHT22;6233;51.560;9.986;2023-04-15T00:02:20;6.70;99.90
12335;DHT22;6233;51.560;9.986;2023-04-15T00:05:22;6.70;99.90
12335;DHT22;6233;51.560;9.986;2023-04-15T00:08:24;6.70;99.90
12335;DHT22;6233;51.560;9.986;2023-04-15T00:11:26;6.70;99.90
12335;DHT22;6233;51.560;9.986;2023-04-15T00:14:27;6.70;99.90
12335;DHT22;6233;51.560;9.986;2023-04-15T00:17:29;6.70;99.90
12335;DHT22;6233;51.560;9.986;2023-04-15T00:20:31;6.70;99.90
12335;DHT22;6233;51.560;9.986;2023-04-15T00:23:33;6.70;99.90
12335;DHT22;6233;51.560;9.986;2023-04-15T00:26:58;6.80;99.90
12335;DHT22;6233;51.560;9.986;2023-04-15T00:30:00;6.80;99.90
12335;DHT22;6233;51.560;9.986;2023-04-15T00:33:02;6.80;99.90
12335;DHT22;6233;51.560;9.986;2023-04-15T00:36:05;6.80;99.90
12335;DHT22;6233;51.560;9.986;2023-04-15T00:39:08;6.70;99.90
12335;DHT22;6233;51.560;9.986;2023-04-15T00:42:09;6.70;99.90
12335;DHT22;6233;51.560;9.986;2023-04-15T00:45:11;6.70;99.90
12335;DHT22;6233;51.560;9.986;2023-04-15T00:48:13;6.70;99.90
12335;DHT22;6233;51.560;9.986;2023-04-15T00:51:16;6.70;99.90
12335;DHT22;6233;51.560;9.986;2023-04-15T00:54:18;6.80;99.90
12335;DHT22;6233;51.560;9.986;2023-04-15T00:57:20;6.70;99.90
12335;DHT22;6233;51.560;9.986;2023-04-15T01:00:23;6.80;99.90
12335;DHT22;6233;51.560;9.986;2023-04-15T01:03:25;6.80;99.90
12335;DHT22;6233;51.560;9.986;2023-04-15T01:06:28;6.80;99.90
12335;DHT22;6233;51.560;9.986;2023-04-15T01:09:30;6.80;99.90
12335;DHT22;6233;51.560;9.986;2023-04-15T01:12:32;6.80;99.90
12335;DHT22;6233;51.560;9.986;2023-04-15T01:15:35;6.80;99.90
12335;DHT22;6233;51.560;9.986;2023-04-15T01:18:37;6.80;99.90
12335;DHT22;6233;51.560;9.986;2023-04-15T01:21:39;6.80;99.90
12335;DHT22;6233;51.560;9.986;2023-04-15T01:24:46;6.80;99.90
12335;DHT22;6233;51.560;9.986;2023-04-15T01:27:49;6.80;99.90
12335;DHT22;6233;51.560;9.986;2023-04-15T01:31:08;6.80;99.90
12335;DHT22;6233;51.560;9.986;2023-04-15T01:34:10;6.80;99.90
12335;DHT22;6233;51.560;9.986;2023-04-15T01:37:12;6.70;99.90
12335;DHT22;6233;51.560;9.986;2023-04-15T01:40:14;6.80;99.90
12335;DHT22;6233;51.560;9.986;2023-04-15T01:43:17;6.80;99.90
12335;DHT22;6233;51.560;9.986;2023-04-15T01:46:19;6.70;99.90
12335;DHT22;6233;51.560;9.986;2023-04-15T01:49:21;6.70;99.90
12335;DHT22;6233;51.560;9.986;2023-04-15T01:52:23;6.70;99.90
12335;DHT22;6233;51.560;9.986;2023-04-15T01:55:25;6.70;99.90
12335;DHT22;6233;51.560;9.986;2023-04-15T01:58:26;6.70;99.90
12335;DHT22;6233;51.560;9.986;2023-04-15T02:01:28;6.70;99.90
12335;DHT22;6233;51.560;9.986;2023-04-15T02:04:30;6.70;99.90
12335;DHT22;6233;51.560;9.986;2023-04-15T02:07:32;6.60;99.90
12335;DHT22;6233;51.560;9.986;2023-04-15T02:10:34;6.60;99.90
12335;DHT22;6233;51.560;9.986;2023-04-15T02:13:36;6.60;99.90
12335;DHT22;6233;51.560;9.986;2023-04-15T02:16:38;6.60;99.90
12335;DHT22;6233;51.560;9.986;2023-04-15T02:19:40;6.60;99.90
12335;DHT22;6233;51.560;9.986;2023-04-15T02:22:42;6.60;99.90
12335;DHT22;6233;51.560;9.986;2023-04-15T02:25:43;6.60;99.90
12335;DHT22;6233;51.560;9.986;2023-04-15T02:28:54;6.60;99.90
12335;DHT22;6233;51.560;9.986;2023-04-15T02:31:56;6.50;99.90
12335;DHT22;6233;51.560;9.986;2023-04-15T02:35:02;6.50;99.90
12335;DHT22;6233;51.560;9.986;2023-04-15T02:38:04;6.40;99.90
12335;DHT22;6233;51.560;9.986;2023-04-15T02:41:06;6.40;99.90
12335;DHT22;6233;51.560;9.986;2023-04-15T02:44:08;6.40;99.90
12335;DHT22;6233;51.560;9.986;2023-04-15T02:47:12;6.40;99.90
12335;DHT22;6233;51.560;9.986;2023-04-15T02:50:14;6.30;99.90
12335;DHT22;6233;51.560;9.986;2023-04-15T02:53:17;6.30;99.90
12335;DHT22;6233;51.560;9.986;2023-04-15T02:56:20;6.40;99.90
12335;DHT22;6233;51.560;9.986;2023-04-15T02:59:23;6.30;99.90
12335;DHT22;6233;51.560;9.986;2023-04-15T03:02:25;6.30;99.90
12335;DHT22;6233;51.560;9.986;2023-04-15T03:05:27;6.30;99.90
12335;DHT22;6233;51.560;9.986;2023-04-15T03:08:29;6.30;99.90
12335;DHT22;6233;51.560;9.986;2023-04-15T03:11:32;6.30;99.90
12335;DHT22;6233;51.560;9.986;2023-04-15T03:14:36;6.30;99.90
12335;DHT22;6233;51.560;9.986;2023-04-15T03:17:38;6.30;99.90
12335;DHT22;6233;51.560;9.986;2023-04-15T03:20:40;6.30;99.90
12335;DHT22;6233;51.560;9.986;2023-04-15T03:23:42;6.30;99.90
12335;DHT22;6233;51.560;9.986;2023-04-15T03:26:44;6.30;99.90
12335;DHT22;6233;51.560;9.986;2023-04-15T03:29:45;6.30;99.90
12335;DHT22;6233;51.560;9.986;2023-04-15T03:32:47;6.30;99.90
12335;DHT22;6233;51.560;9.986;2023-04-15T03:35:50;6.30;99.90
12335;DHT22;6233;51.560;9.986;2023-04-15T03:38:52;6.30;99.90
12335;DHT22;6233;51.560;9.986;2023-04-15T03:41:54;6.30;99.90
12335;DHT22;6233;51.560;9.986;2023-04-15T03:44:56;6.20;99.90
12335;DHT22;6233;51.560;9.986;2023-04-15T03:47:58;6.20;99.90
12335;DHT22;6233;51.560;9.986;2023-04-15T03:51:16;6.20;99.90
12335;DHT22;6233;51.560;9.986;2023-04-15T03:54:18;6.20;99.90
12335;DHT22;6233;51.560;9.986;2023-04-15T03:57:20;6.20;99.90
12335;DHT22;6233;51.560;9.986;2023-04-15T04:00:22;6.30;99.90
12335;DHT22;6233;51.560;9.986;2023-04-15T04:03:24;6.20;99.90
12335;DHT22;6233;51.560;9.986;2023-04-15T04:06:26;6.20;99.90
12335;DHT22;6233;51.560;9.986;2023-04-15T04:09:27;6.20;99.90
12335;DHT22;6233;51.560;9.986;2023-04-15T04:12:29;6.20;99.90
12335;DHT22;6233;51.560;9.986;2023-04-15T04:15:31;6.10;99.90
12335;DHT22;6233;51.560;9.986;2023-04-15T04:18:33;6.10;99.90
12335;DHT22;6233;51.560;9.986;2023-04-15T04:21:35;6.10;99.90
12335;DHT22;6233;51.560;9.986;2023-04-15T04:24:37;6.10;99.90
12335;DHT22;6233;51.560;9.986;2023-04-15T04:27:38;6.10;99.90
12335;DHT22;6233;51.560;9.986;2023-04-15T04:30:40;6.10;99.90
12335;DHT22;6233;51.560;9.986;2023-04-15T04:33:42;6.10;99.90
12335;DHT22;6233;51.560;9.986;2023-04-15T04:36:44;6.10;99.90
12335;DHT22;6233;51.560;9.986;2023-04-15T04:39:46;6.10;99.90
12335;DHT22;6233;51.560;9.986;2023-04-15T04:42:48;6.10;99.90
12335;DHT22;6233;51.560;9.986;2023-04-15T04:45:50;6.10;99.90
12335;DHT22;6233;51.560;9.986;2023-04-15T04:48:51;6.00;99.90
12335;DHT22;6233;51.560;9.986;2023-04-15T04:51:53;6.00;99.90
12335;DHT22;6233;51.560;9.986;2023-04-15T04:54:55;6.00;99.90
12335;DHT22;6233;51.560;9.986;2023-04-15T04:57:57;6.00;99.90
12335;DHT22;6233;51.560;9.986;2023-04-15T05:00:59;6.00;99.90
12335;DHT22;6233;51.560;9.986;2023-04-15T05:04:01;6.00;99.90
12335;DHT22;6233;51.560;9.986;2023-04-15T05:07:06;6.00;99.90
12335;DHT22;6233;51.560;9.986;2023-04-15T05:10:08;6.00;99.90
12335;DHT22;6233;51.560;9.986;2023-04-15T05:13:09;6.00;99.90
12335;DHT22;6233;51.560;9.986;2023-04-15T05:16:11;6.10;99.90
12335;DHT22;6233;51.560;9.986;2023-04-15T05:19:13;6.10;99.90
12335;DHT22;6233;51.560;9.986;2023-04-15T05:22:15;6.10;99.90
12335;DHT22;6233;51.560;9.986;2023-04-15T05:25:16;6.10;99.90
12335;DHT22;6233;51.560;9.986;2023-04-15T05:28:18;6.10;99.90
12335;DHT22;6233;51.560;9.986;2023-04-15T05:31:20;6.10;99.90
12335;DHT22;6233;51.560;9.986;2023-04-15T05:34:22;6.10;99.90
12335;DHT22;6233;51.560;9.986;2023-04-15T05:37:24;6.10;99.90
12335;DHT22;6233;51.560;9.986;2023-04-15T05:40:25;6.10;99.90
12335;DHT22;6233;51.560;9.986;2023-04-15T05:43:27;6.20;99.90
12335;DHT22;6233;51.560;9.986;2023-04-15T05:46:29;6.20;99.90
12335;DHT22;6233;51.560;9.986;2023-04-15T05:53:53;6.10;99.90
12335;DHT22;6233;51.560;9.986;2023-04-15T05:56:55;6.10;99.90
12335;DHT22;6233;51.560;9.986;2023-04-15T05:59:58;6.10;99.90
12335;DHT22;6233;51.560;9.986;2023-04-15T06:02:59;6.10;99.90
12335;DHT22;6233;51.560;9.986;2023-04-15T06:06:01;6.10;99.90
12335;DHT22;6233;51.560;9.986;2023-04-15T06:09:04;6.20;99.90
12335;DHT22;6233;51.560;9.986;2023-04-15T06:12:05;6.20;99.90
12335;DHT22;6233;51.560;9.986;2023-04-15T06:15:12;6.20;99.90
12335;DHT22;6233;51.560;9.986;2023-04-15T06:18:14;6.20;99.90
12335;DHT22;6233;51.560;9.986;2023-04-15T06:21:16;6.10;99.90
12335;DHT22;6233;51.560;9.986;2023-04-15T06:24:17;6.10;99.90
12335;DHT22;6233;51.560;9.986;2023-04-15T06:27:19;6.10;99.90
12335;DHT22;6233;51.560;9.986;2023-04-15T06:30:21;6.10;99.90
12335;DHT22;6233;51.560;9.986;2023-04-15T06:33:25;6.20;99.90
12335;DHT22;6233;51.560;9.986;2023-04-15T06:36:26;6.20;99.90
12335;DHT22;6233;51.560;9.986;2023-04-15T06:39:59;6.10;99.90
12335;DHT22;6233;51.560;9.986;2023-04-15T06:43:04;6.20;99.90
12335;DHT22;6233;51.560;9.986;2023-04-15T06:46:06;6.20;99.90
12335;DHT22;6233;51.560;9.986;2023-04-15T06:49:07;6.10;99.90
12335;DHT22;6233;51.560;9.986;2023-04-15T06:52:10;6.10;99.90
12335;DHT22;6233;51.560;9.986;2023-04-15T06:55:11;6.10;99.90
12335;DHT22;6233;51.560;9.986;2023-04-15T06:58:13;6.10;99.90
12335;DHT22;6233;51.560;9.986;2023-04-15T07:01:15;6.30;99.90
12335;DHT22;6233;51.560;9.986;2023-04-15T07:04:17;6.30;99.90
12335;DHT22;6233;51.560;9.986;2023-04-15T07:07:19;6.30;99.90
12335;DHT22;6233;51.560;9.986;2023-04-15T07:10:21;6.30;99.90
12335;DHT22;6233;51.560;9.986;2023-04-15T07:13:25;6.30;99.90
12335;DHT22;6233;51.560;9.986;2023-04-15T07:16:27;6.20;99.90
12335;DHT22;6233;51.560;9.986;2023-04-15T07:19:30;6.30;99.90
12335;DHT22;6233;51.560;9.986;2023-04-15T07:22:32;6.20;99.90
12335;DHT22;6233;51.560;9.986;2023-04-15T07:25:34;6.20;99.90
12335;DHT22;6233;51.560;9.986;2023-04-15T07:28:36;6.30;99.90
12335;DHT22;6233;51.560;9.986;2023-04-15T07:31:39;6.30;99.90
12335;DHT22;6233;51.560;9.986;2023-04-15T07:34:41;6.30;99.90
12335;DHT22;6233;51.560;9.986;2023-04-15T07:37:43;6.30;99.90
12335;DHT22;6233;51.560;9.986;2023-04-15T07:40:45;6.30;99.90
12335;DHT22;6233;51.560;9.986;2023-04-15T07:43:47;6.30;99.90
12335;DHT22;6233;51.560;9.986;2023-04-15T07:46:49;6.30;99.90
12335;DHT22;6233;51.560;9.986;2023-04-15T07:49:51;6.40;99.90
12335;DHT22;6233;51.560;9.986;2023-04-15T07:52:53;6.30;99.90
12335;DHT22;6233;51.560;9.986;2023-04-15T07:55:55;6.40;99.90
12335;DHT22;6233;51.560;9.986;2023-04-15T07:59:01;6.50;99.90
12335;DHT22;6233;51.560;9.986;2023-04-15T08:02:05;6.50;99.90
12335;DHT22;6233;51.560;9.986;2023-04-15T08:05:08;6.50;99.90
12335;DHT22;6233;51.560;9.986;2023-04-15T08:08:11;6.40;99.90
12335;DHT22;6233;51.560;9.986;2023-04-15T08:11:13;6.40;99.90
12335;DHT22;6233;51.560;9.986;2023-04-15T08:14:15;6.40;99.90
12335;DHT22;6233;51.560;9.986;2023-04-15T08:17:17;6.40;99.90
12335;DHT22;6233;51.560;9.986;2023-04-15T08:20:19;6.40;99.90
12335;DHT22;6233;51.560;9.986;2023-04-15T08:23:21;6.40;99.90
12335;DHT22;6233;51.560;9.986;2023-04-15T08:26:23;6.50;99.90
12335;DHT22;6233;51.560;9.986;2023-04-15T08:29:24;6.50;99.90
12335;DHT22;6233;51.560;9.986;2023-04-15T08:32:26;6.50;99.90
12335;DHT22;6233;51.560;9.986;2023-04-15T08:35:28;6.50;99.90
12335;DHT22;6233;51.560;9.986;2023-04-15T08:38:30;6.50;99.90
12335;DHT22;6233;51.560;9.986;2023-04-15T08:41:39;6.50;99.90
12335;DHT22;6233;51.560;9.986;2023-04-15T08:44:45;6.50;99.90
12335;DHT22;6233;51.560;9.986;2023-04-15T08:47:50;6.50;99.90
12335;DHT22;6233;51.560;9.986;2023-04-15T08:50:54;6.50;99.90
12335;DHT22;6233;51.560;9.986;2023-04-15T08:53:56;6.50;99.90
12335;DHT22;6233;51.560;9.986;2023-04-15T08:56:58;6.50;99.90
12335;DHT22;6233;51.560;9.986;2023-04-15T09:00:02;6.50;99.90
12335;DHT22;6233;51.560;9.986;2023-04-15T09:03:07;6.50;99.90
12335;DHT22;6233;51.560;9.986;2023-04-15T09:06:10;6.50;99.90
12335;DHT22;6233;51.560;9.986;2023-04-15T09:09:12;6.50;99.90
12335;DHT22;6233;51.560;9.986;2023-04-15T09:12:15;6.50;99.90
12335;DHT22;6233;51.560;9.986;2023-04-15T09:15:17;6.40;99.90
12335;DHT22;6233;51.560;9.986;2023-04-15T09:18:30;6.40;99.90
12335;DHT22;6233;51.560;9.986;2023-04-15T09:21:33;6.50;99.90
12335;DHT22;6233;51.560;9.986;2023-04-15T09:24:36;6.50;99.90
12335;DHT22;6233;51.560;9.986;2023-04-15T09:27:49;6.50;99.90
12335;DHT22;6233;51.560;9.986;2023-04-15T09:30:55;6.60;99.90
12335;DHT22;6233;51.560;9.986;2023-04-15T09:33:57;6.60;99.90
12335;DHT22;6233;51.560;9.986;2023-04-15T09:36:59;6.50;99.90
12335;DHT22;6233;51.560;9.986;2023-04-15T09:40:01;6.60;99.90
12335;DHT22;6233;51.560;9.986;2023-04-15T09:43:04;6.60;99.90
12335;DHT22;6233;51.560;9.986;2023-04-15T09:46:06;6.60;99.90
12335;DHT22;6233;51.560;9.986;2023-04-15T09:49:10;6.60;99.90
12335;DHT22;6233;51.560;9.986;2023-04-15T09:52:12;6.60;99.90
12335;DHT22;6233;51.560;9.986;2023-04-15T09:55:16;6.60;99.90
12335;DHT22;6233;51.560;9.986;2023-04-15T09:58:26;6.60;99.90
12335;DHT22;6233;51.560;9.986;2023-04-15T10:01:28;6.60;99.90
12335;DHT22;6233;51.560;9.986;2023-04-15T10:04:34;6.60;99.90
12335;DHT22;6233;51.560;9.986;2023-04-15T10:07:37;6.60;99.90
12335;DHT22;6233;51.560;9.986;2023-04-15T10:10:41;6.70;99.90
12335;DHT22;6233;51.560;9.986;2023-04-15T10:13:44;6.70;99.90
12335;DHT22;6233;51.560;9.986;2023-04-15T10:16:46;6.70;99.90
12335;DHT22;6233;51.560;9.986;2023-04-15T10:19:52;6.70;99.90
12335;DHT22;6233;51.560;9.986;2023-04-15T10:22:54;6.70;99.90
12335;DHT22;6233;51.560;9.986;2023-04-15T10:25:58;6.60;99.90
12335;DHT22;6233;51.560;9.986;2023-04-15T10:29:00;6.70;99.90
12335;DHT22;6233;51.560;9.986;2023-04-15T10:32:03;6.70;99.90
12335;DHT22;6233;51.560;9.986;2023-04-15T10:35:06;6.70;99.90
12335;DHT22;6233;51.560;9.986;2023-04-15T10:41:34;6.70;99.90
12335;DHT22;6233;51.560;9.986;2023-04-15T10:44:37;6.70;99.90
12335;DHT22;6233;51.560;9.986;2023-04-15T10:47:39;6.70;99.90
12335;DHT22;6233;51.560;9.986;2023-04-15T10:50:59;6.70;99.90
12335;DHT22;6233;51.560;9.986;2023-04-15T10:54:01;6.70;99.90
12335;DHT22;6233;51.560;9.986;2023-04-15T11:03:10;6.80;99.90
12335;DHT22;6233;51.560;9.986;2023-04-15T11:06:13;6.90;99.90
12335;DHT22;6233;51.560;9.986;2023-04-15T11:09:30;6.80;99.90
12335;DHT22;6233;51.560;9.986;2023-04-15T11:12:34;6.90;99.90
12335;DHT22;6233;51.560;9.986;2023-04-15T11:15:39;6.90;99.90
12335;DHT22;6233;51.560;9.986;2023-04-15T11:18:55;7.00;99.90
12335;DHT22;6233;51.560;9.986;2023-04-15T11:21:57;6.90;99.90
12335;DHT22;6233;51.560;9.986;2023-04-15T11:25:07;7.00;99.90
12335;DHT22;6233;51.560;9.986;2023-04-15T11:28:09;7.00;99.90
12335;DHT22;6233;51.560;9.986;2023-04-15T11:31:16;7.00;99.90
12335;DHT22;6233;51.560;9.986;2023-04-15T11:34:31;7.00;99.90
12335;DHT22;6233;51.560;9.986;2023-04-15T11:37:36;7.00;99.90
12335;DHT22;6233;51.560;9.986;2023-04-15T11:40:38;6.90;99.90
12335;DHT22;6233;51.560;9.986;2023-04-15T11:43:41;7.00;99.90
12335;DHT22;6233;51.560;9.986;2023-04-15T11:46:43;7.00;99.90
12335;DHT22;6233;51.560;9.986;2023-04-15T11:49:46;7.00;99.90
12335;DHT22;6233;51.560;9.986;2023-04-15T11:52:58;7.00;99.90
12335;DHT22;6233;51.560;9.986;2023-04-15T11:56:00;7.00;99.90
12335;DHT22;6233;51.560;9.986;2023-04-15T11:59:02;7.00;99.90
12335;DHT22;6233;51.560;9.986;2023-04-15T12:02:11;7.10;99.90
12335;DHT22;6233;51.560;9.986;2023-04-15T12:05:13;7.10;99.90
12335;DHT22;6233;51.560;9.986;2023-04-15T12:08:15;7.10;99.90
12335;DHT22;6233;51.560;9.986;2023-04-15T12:14:29;7.10;99.90
12335;DHT22;6233;51.560;9.986;2023-04-15T12:17:33;7.10;99.90
12335;DHT22;6233;51.560;9.986;2023-04-15T12:20:52;7.00;99.90
12335;DHT22;6233;51.560;9.986;2023-04-15T12:23:56;7.00;99.90
12335;DHT22;6233;51.560;9.986;2023-04-15T12:27:04;7.10;99.90
12335;DHT22;6233;51.560;9.986;2023-04-15T12:30:07;7.10;99.90
12335;DHT22;6233;51.560;9.986;2023-04-15T12:33:09;7.10;99.90
12335;DHT22;6233;51.560;9.986;2023-04-15T12:36:11;7.10;99.90
12335;DHT22;6233;51.560;9.986;2023-04-15T12:39:13;7.10;99.90
12335;DHT22;6233;51.560;9.986;2023-04-15T12:42:16;7.00;99.90
12335;DHT22;6233;51.560;9.986;2023-04-15T12:45:18;7.10;99.90
12335;DHT22;6233;51.560;9.986;2023-04-15T12:48:20;7.10;99.90
12335;DHT22;6233;51.560;9.986;2023-04-15T12:51:21;7.10;99.90
12335;DHT22;6233;51.560;9.986;2023-04-15T12:54:23;7.10;99.90
12335;DHT22;6233;51.560;9.986;2023-04-15T12:57:25;7.10;99.90
12335;DHT22;6233;51.560;9.986;2023-04-15T13:00:28;7.00;99.90
12335;DHT22;6233;51.560;9.986;2023-04-15T13:03:30;7.10;99.90
12335;DHT22;6233;51.560;9.986;2023-04-15T13:06:32;7.10;99.90
12335;DHT22;6233;51.560;9.986;2023-04-15T13:09:34;7.10;99.90
12335;DHT22;6233;51.560;9.986;2023-04-15T13:12:36;7.20;99.90
12335;DHT22;6233;51.560;9.986;2023-04-15T13:15:37;7.20;99.90
12335;DHT22;6233;51.560;9.986;2023-04-15T13:18:39;7.20;99.90
12335;DHT22;6233;51.560;9.986;2023-04-15T13:21:41;7.20;99.90
12335;DHT22;6233;51.560;9.986;2023-04-15T13:24:43;7.20;99.90
12335;DHT22;6233;51.560;9.986;2023-04-15T13:27:44;7.20;99.90
12335;DHT22;6233;51.560;9.986;2023-04-15T13:30:47;7.20;99.90
12335;DHT22;6233;51.560;9.986;2023-04-15T13:33:49;7.20;99.90
12335;DHT22;6233;51.560;9.986;2023-04-15T13:36:51;7.20;99.90
12335;DHT22;6233;51.560;9.986;2023-04-15T13:39:54;7.20;99.90
12335;DHT22;6233;51.560;9.986;2023-04-15T13:42:56;7.20;99.90
12335;DHT22;6233;51.560;9.986;2023-04-15T13:45:59;7.30;99.90
12335;DHT22;6233;51.560;9.986;2023-04-15T13:49:01;7.20;99.90
12335;DHT22;6233;51.560;9.986;2023-04-15T13:52:03;7.30;99.90
12335;DHT22;6233;51.560;9.986;2023-04-15T13:55:05;7.30;99.90
12335;DHT22;6233;51.560;9.986;2023-04-15T13:58:21;7.30;99.90
12335;DHT22;6233;51.560;9.986;2023-04-15T14:01:23;7.30;99.90
12335;DHT22;6233;51.560;9.986;2023-04-15T14:04:25;7.40;99.90
12335;DHT22;6233;51.560;9.986;2023-04-15T14:07:28;7.40;99.90
12335;DHT22;6233;51.560;9.986;2023-04-15T14:10:30;7.40;99.90
12335;DHT22;6233;51.560;9.986;2023-04-15T14:13:32;7.40;99.90
12335;DHT22;6233;51.560;9.986;2023-04-15T14:16:34;7.40;99.90
12335;DHT22;6233;51.560;9.986;2023-04-15T14:19:35;7.50;99.90
12335;DHT22;6233;51.560;9.986;2023-04-15T14:22:37;7.50;99.90
12335;DHT22;6233;51.560;9.986;2023-04-15T14:25:39;7.60;99.90
12335;DHT22;6233;51.560;9.986;2023-04-15T14:28:41;7.50;99.90
12335;DHT22;6233;51.560;9.986;2023-04-15T14:31:45;7.60;99.90
12335;DHT22;6233;51.560;9.986;2023-04-15T14:35:07;7.60;99.90
12335;DHT22;6233;51.560;9.986;2023-04-15T14:38:09;7.70;99.90
12335;DHT22;6233;51.560;9.986;2023-04-15T14:41:12;7.70;99.90
12335;DHT22;6233;51.560;9.986;2023-04-15T14:44:14;7.70;99.90
12335;DHT22;6233;51.560;9.986;2023-04-15T14:47:15;7.70;99.90
12335;DHT22;6233;51.560;9.986;2023-04-15T14:50:18;7.70;99.90
12335;DHT22;6233;51.560;9.986;2023-04-15T14:53:20;7.80;99.90
12335;DHT22;6233;51.560;9.986;2023-04-15T14:56:21;7.80;99.90
12335;DHT22;6233;51.560;9.986;2023-04-15T14:59:23;7.80;99.90
12335;DHT22;6233;51.560;9.986;2023-04-15T15:02:25;7.80;99.90
12335;DHT22;6233;51.560;9.986;2023-04-15T15:05:41;7.80;99.90
12335;DHT22;6233;51.560;9.986;2023-04-15T15:08:44;7.90;99.90
12335;DHT22;6233;51.560;9.986;2023-04-15T15:11:46;7.90;99.90
12335;DHT22;6233;51.560;9.986;2023-04-15T15:14:48;7.90;99.90
12335;DHT22;6233;51.560;9.986;2023-04-15T15:17:50;7.90;99.90
12335;DHT22;6233;51.560;9.986;2023-04-15T15:20:51;8.00;99.90
12335;DHT22;6233;51.560;9.986;2023-04-15T15:23:53;8.00;99.90
12335;DHT22;6233;51.560;9.986;2023-04-15T15:26:55;8.00;99.90
12335;DHT22;6233;51.560;9.986;2023-04-15T15:29:57;8.00;99.90
12335;DHT22;6233;51.560;9.986;2023-04-15T15:32:59;8.10;99.90
12335;DHT22;6233;51.560;9.986;2023-04-15T15:36:02;8.00;99.90
12335;DHT22;6233;51.560;9.986;2023-04-15T15:39:04;8.10;99.90
12335;DHT22;6233;51.560;9.986;2023-04-15T15:42:06;8.00;99.90
12335;DHT22;6233;51.560;9.986;2023-04-15T15:45:08;8.00;99.90
12335;DHT22;6233;51.560;9.986;2023-04-15T15:48:10;8.00;99.90
12335;DHT22;6233;51.560;9.986;2023-04-15T15:54:55;8.00;99.90
12335;DHT22;6233;51.560;9.986;2023-04-15T15:57:57;8.00;99.90
12335;DHT22;6233;51.560;9.986;2023-04-15T16:01:09;8.10;99.90
12335;DHT22;6233;51.560;9.986;2023-04-15T16:04:11;8.10;99.90
12335;DHT22;6233;51.560;9.986;2023-04-15T16:07:13;8.20;99.90
12335;DHT22;6233;51.560;9.986;2023-04-15T16:10:16;8.10;99.90
12335;DHT22;6233;51.560;9.986;2023-04-15T16:13:18;8.10;99.90
12335;DHT22;6233;51.560;9.986;2023-04-15T16:16:19;8.10;99.90
12335;DHT22;6233;51.560;9.986;2023-04-15T16:19:22;8.20;99.90
12335;DHT22;6233;51.560;9.986;2023-04-15T16:22:44;8.20;99.90
12335;DHT22;6233;51.560;9.986;2023-04-15T16:25:46;8.10;99.90
12335;DHT22;6233;51.560;9.986;2023-04-15T16:28:47;8.10;99.90
12335;DHT22;6233;51.560;9.986;2023-04-15T16:31:49;8.20;99.90
12335;DHT22;6233;51.560;9.986;2023-04-15T16:34:51;8.40;99.90
12335;DHT22;6233;51.560;9.986;2023-04-15T16:37:53;8.30;99.90
12335;DHT22;6233;51.560;9.986;2023-04-15T16:40:58;8.20;99.90
12335;DHT22;6233;51.560;9.986;2023-04-15T16:44:01;8.20;99.90
12335;DHT22;6233;51.560;9.986;2023-04-15T16:47:03;8.10;99.90
12335;DHT22;6233;51.560;9.986;2023-04-15T16:50:06;8.10;99.90
12335;DHT22;6233;51.560;9.986;2023-04-15T16:53:08;8.10;99.90
12335;DHT22;6233;51.560;9.986;2023-04-15T16:56:10;8.10;99.90
12335;DHT22;6233;51.560;9.986;2023-04-15T16:59:12;8.20;99.90
12335;DHT22;6233;51.560;9.986;2023-04-15T17:02:14;8.10;99.90
12335;DHT22;6233;51.560;9.986;2023-04-15T17:05:16;8.20;99.90
12335;DHT22;6233;51.560;9.986;2023-04-15T17:08:18;8.20;99.90
12335;DHT22;6233;51.560;9.986;2023-04-15T17:11:20;8.20;99.90
12335;DHT22;6233;51.560;9.986;2023-04-15T17:14:21;8.20;99.90
12335;DHT22;6233;51.560;9.986;2023-04-15T17:17:23;8.20;99.90
12335;DHT22;6233;51.560;9.986;2023-04-15T17:20:25;8.20;99.90
12335;DHT22;6233;51.560;9.986;2023-04-15T17:23:27;8.30;99.90
12335;DHT22;6233;51.560;9.986;2023-04-15T17:26:29;8.30;99.90
12335;DHT22;6233;51.560;9.986;2023-04-15T17:29:32;8.20;99.90
12335;DHT22;6233;51.560;9.986;2023-04-15T17:32:33;8.30;99.90
12335;DHT22;6233;51.560;9.986;2023-04-15T17:35:36;8.30;99.90
12335;DHT22;6233;51.560;9.986;2023-04-15T17:38:37;8.30;99.90
12335;DHT22;6233;51.560;9.986;2023-04-15T17:41:39;8.30;99.90
12335;DHT22;6233;51.560;9.986;2023-04-15T17:44:41;8.30;99.90
12335;DHT22;6233;51.560;9.986;2023-04-15T17:47:43;8.40;99.90
12335;DHT22;6233;51.560;9.986;2023-04-15T17:50:45;8.40;99.90
12335;DHT22;6233;51.560;9.986;2023-04-15T17:57:18;8.40;99.90
12335;DHT22;6233;51.560;9.986;2023-04-15T18:00:20;8.40;99.90
12335;DHT22;6233;51.560;9.986;2023-04-15T18:03:22;8.40;99.90
12335;DHT22;6233;51.560;9.986;2023-04-15T18:06:25;8.50;99.90
12335;DHT22;6233;51.560;9.986;2023-04-15T18:09:27;8.40;99.90
12335;DHT22;6233;51.560;9.986;2023-04-15T18:12:29;8.40;99.90
12335;DHT22;6233;51.560;9.986;2023-04-15T18:15:31;8.50;99.90
12335;DHT22;6233;51.560;9.986;2023-04-15T18:18:38;8.50;99.90
12335;DHT22;6233;51.560;9.986;2023-04-15T18:21:44;8.50;99.90
12335;DHT22;6233;51.560;9.986;2023-04-15T18:24:46;8.50;99.90
12335;DHT22;6233;51.560;9.986;2023-04-15T18:27:50;8.50;99.90
12335;DHT22;6233;51.560;9.986;2023-04-15T18:31:28;8.50;99.90
12335;DHT22;6233;51.560;9.986;2023-04-15T18:34:30;8.60;99.90
12335;DHT22;6233;51.560;9.986;2023-04-15T18:37:32;8.60;99.90
12335;DHT22;6233;51.560;9.986;2023-04-15T18:40:34;8.60;99.90
12335;DHT22;6233;51.560;9.986;2023-04-15T18:43:36;8.60;99.90
12335;DHT22;6233;51.560;9.986;2023-04-15T18:46:38;8.50;99.90
12335;DHT22;6233;51.560;9.986;2023-04-15T18:49:40;8.50;99.90
12335;DHT22;6233;51.560;9.986;2023-04-15T18:52:42;8.50;99.90
12335;DHT22;6233;51.560;9.986;2023-04-15T18:55:44;8.50;99.90
12335;DHT22;6233;51.560;9.986;2023-04-15T18:58:46;8.50;99.90
12335;DHT22;6233;51.560;9.986;2023-04-15T19:02:07;8.50;99.90
12335;DHT22;6233;51.560;9.986;2023-04-15T19:05:09;8.60;99.90
12335;DHT22;6233;51.560;9.986;2023-04-15T19:08:28;8.60;99.90
12335;DHT22;6233;51.560;9.986;2023-04-15T19:11:31;8.60;99.90
12335;DHT22;6233;51.560;9.986;2023-04-15T19:14:32;8.60;99.90
12335;DHT22;6233;51.560;9.986;2023-04-15T19:17:34;8.60;99.90
12335;DHT22;6233;51.560;9.986;2023-04-15T19:20:37;8.60;99.90
12335;DHT22;6233;51.560;9.986;2023-04-15T19:23:40;8.60;99.90
12335;DHT22;6233;51.560;9.986;2023-04-15T19:26:46;8.60;99.90
12335;DHT22;6233;51.560;9.986;2023-04-15T19:29:47;8.60;99.90
12335;DHT22;6233;51.560;9.986;2023-04-15T19:32:49;8.60;99.90
12335;DHT22;6233;51.560;9.986;2023-04-15T19:35:51;8.60;99.90
12335;DHT22;6233;51.560;9.986;2023-04-15T19:38:53;8.60;99.90
12335;DHT22;6233;51.560;9.986;2023-04-15T19:41:55;8.70;99.90
12335;DHT22;6233;51.560;9.986;2023-04-15T19:44:57;8.70;99.90
12335;DHT22;6233;51.560;9.986;2023-04-15T19:47:59;8.70;99.90
12335;DHT22;6233;51.560;9.986;2023-04-15T19:51:01;8.70;99.90
12335;DHT22;6233;51.560;9.986;2023-04-15T19:54:03;8.70;99.90
12335;DHT22;6233;51.560;9.986;2023-04-15T19:57:05;8.70;99.90
12335;DHT22;6233;51.560;9.986;2023-04-15T20:00:07;8.70;99.90
12335;DHT22;6233;51.560;9.986;2023-04-15T20:03:09;8.70;99.90
12335;DHT22;6233;51.560;9.986;2023-04-15T20:06:13;8.70;99.90
12335;DHT22;6233;51.560;9.986;2023-04-15T20:09:15;8.70;99.90
12335;DHT22;6233;51.560;9.986;2023-04-15T20:12:17;8.70;99.90
12335;DHT22;6233;51.560;9.986;2023-04-15T20:15:39;8.70;99.90
12335;DHT22;6233;51.560;9.986;2023-04-15T20:18:41;8.70;99.90
12335;DHT22;6233;51.560;9.986;2023-04-15T20:21:43;8.70;99.90